Time;durP1;ratioP1;P1;durP2;ratioP2;P2;SDS_P1;SDS_P2;PMS_P1;PMS_P2;Temp;Humidity;BMP_temperature;BMP_pressure;BME280_temperature;BME280_humidity;BME280_pressure;Samples;Min_cycle;Max_cycle;Signal;HPM_P1;HPM_P2
2021/03/12 00:00:45;;;;;;;1.10;0.70;;;4.80;96.30;;;;;;4974325;28;20425;-78
2021/03/12 00:03:13;;;;;;;2.60;0.70;;;4.80;96.30;;;;;;4973195;28;20418;-78
2021/03/12 00:05:43;;;;;;;6.30;1.00;;;4.60;96.30;;;;;;4974289;28;20452;-78
2021/03/12 00:08:09;;;;;;;2.07;0.70;;;4.60;96.30;;;;;;4973672;28;20436;-77
2021/03/12 00:10:35;;;;;;;1.40;0.60;;;4.60;96.30;;;;;;4973940;28;20437;-78
2021/03/12 00:13:00;;;;;;;3.17;0.70;;;4.60;96.30;;;;;;4972999;28;20178;-78
2021/03/12 00:15:27;;;;;;;1.93;0.60;;;4.60;96.30;;;;;;4974041;28;20566;-78
2021/03/12 00:17:53;;;;;;;1.83;0.57;;;4.60;96.30;;;;;;4973915;28;20170;-77
2021/03/12 00:20:28;;;;;;;4.07;0.80;;;4.70;96.30;;;;;;4973621;28;20433;-77
2021/03/12 00:22:53;;;;;;;1.40;1.00;;;4.70;96.30;;;;;;4973530;28;20249;-77
2021/03/12 00:25:24;;;;;;;1.67;0.80;;;4.60;96.30;;;;;;4972649;28;20556;-78
2021/03/12 00:27:50;;;;;;;3.27;0.80;;;4.60;96.30;;;;;;4973569;28;20162;-78
2021/03/12 00:30:15;;;;;;;1.50;0.70;;;4.60;96.30;;;;;;4973870;28;20444;-78
2021/03/12 00:32:41;;;;;;;2.87;1.00;;;4.60;96.30;;;;;;4973923;28;20643;-78
2021/03/12 00:35:08;;;;;;;5.17;0.90;;;4.60;96.30;;;;;;4976963;28;20182;-78
2021/03/12 00:37:34;;;;;;;3.83;1.00;;;4.70;96.30;;;;;;4981160;28;20944;-78
2021/03/12 00:40:01;;;;;;;3.27;1.20;;;4.70;96.30;;;;;;4979559;28;20534;-78
2021/03/12 00:42:27;;;;;;;1.30;0.70;;;4.70;96.30;;;;;;4973826;28;20953;-78
2021/03/12 00:44:53;;;;;;;2.40;0.73;;;4.60;96.30;;;;;;4973428;28;20672;-78
2021/03/12 00:47:18;;;;;;;6.27;0.90;;;4.70;96.30;;;;;;4973180;28;20197;-78
2021/03/12 00:49:43;;;;;;;1.90;0.77;;;4.70;96.30;;;;;;4973465;28;20190;-78
2021/03/12 00:52:09;;;;;;;2.63;0.90;;;4.70;96.30;;;;;;4973515;28;20225;-78
2021/03/12 00:54:35;;;;;;;2.17;1.00;;;4.80;96.30;;;;;;4972921;28;20616;-78
2021/03/12 00:57:00;;;;;;;6.33;1.27;;;4.70;96.30;;;;;;4976843;28;20198;-78
2021/03/12 00:59:26;;;;;;;1.40;1.00;;;4.70;96.30;;;;;;4973288;28;20217;-78
2021/03/12 05:02:38;;;;;;;2.47;0.80;;;2.50;96.30;;;;;;4965002;28;20477;-81
2021/03/12 05:05:10;;;;;;;3.13;1.00;;;2.50;96.30;;;;;;4957324;28;20520;-81
2021/03/12 05:07:37;;;;;;;1.33;0.60;;;2.40;96.30;;;;;;4958648;28;20429;-79
2021/03/12 05:10:04;;;;;;;0.90;0.70;;;2.40;96.30;;;;;;4972346;28;20413;-78
2021/03/12 05:12:31;;;;;;;3.63;0.80;;;2.30;96.30;;;;;;4954618;28;20458;-79
2021/03/12 05:14:57;;;;;;;1.20;0.60;;;2.30;96.30;;;;;;4953524;29;20427;-77
2021/03/12 05:17:22;;;;;;;1.93;0.90;;;2.30;96.30;;;;;;4952938;29;20438;-77
2021/03/12 05:19:49;;;;;;;2.53;0.70;;;2.20;96.30;;;;;;4953514;29;20477;-77
2021/03/12 05:22:15;;;;;;;1.03;0.70;;;2.10;96.30;;;;;;4954079;28;20576;-77
2021/03/12 05:24:40;;;;;;;1.10;0.57;;;2.10;96.30;;;;;;4952836;29;20462;-77
2021/03/12 05:27:06;;;;;;;2.10;0.90;;;2.20;96.30;;;;;;4953252;29;20422;-77
2021/03/12 05:29:32;;;;;;;1.67;0.90;;;2.20;96.30;;;;;;4953551;29;20286;-78
2021/03/12 05:31:58;;;;;;;2.10;0.70;;;2.20;96.30;;;;;;4953712;28;20577;-77
2021/03/12 05:34:24;;;;;;;1.37;1.00;;;2.20;96.30;;;;;;4952644;29;20183;-77
2021/03/12 05:36:49;;;;;;;1.10;0.70;;;2.20;96.30;;;;;;4953746;29;20437;-77
2021/03/12 05:39:15;;;;;;;2.30;0.93;;;2.30;96.30;;;;;;4952683;29;20617;-77
2021/03/12 05:41:41;;;;;;;2.07;1.30;;;2.20;96.30;;;;;;4953256;28;20258;-78
2021/03/12 05:44:07;;;;;;;3.53;0.97;;;2.40;96.30;;;;;;4953881;28;20273;-77
2021/03/12 05:46:36;;;;;;;1.17;0.67;;;2.40;96.30;;;;;;4961590;28;20465;-78
2021/03/12 05:49:02;;;;;;;1.80;0.80;;;2.50;96.30;;;;;;4955961;28;20254;-78
2021/03/12 05:51:28;;;;;;;2.47;0.90;;;2.60;96.30;;;;;;4938449;29;20427;-77
2021/03/12 05:53:54;;;;;;;0.80;0.53;;;2.60;96.30;;;;;;4938526;29;20435;-77
2021/03/12 05:56:20;;;;;;;2.90;0.70;;;2.70;96.30;;;;;;4956153;29;20277;-76
2021/03/12 05:58:46;;;;;;;1.90;0.70;;;2.80;96.30;;;;;;4955718;28;20539;-77
2021/03/12 06:01:13;;;;;;;2.30;0.80;;;2.80;96.30;;;;;;4963744;28;20222;-76
2021/03/12 06:03:42;;;;;;;1.63;1.13;;;2.80;96.30;;;;;;4971966;28;20430;-78
2021/03/12 06:06:08;;;;;;;3.57;1.00;;;2.80;96.30;;;;;;4961809;28;20426;-76
2021/03/12 06:08:34;;;;;;;3.17;0.90;;;2.90;96.30;;;;;;4954932;29;20430;-77
2021/03/12 06:11:00;;;;;;;3.43;0.90;;;2.90;96.30;;;;;;4956980;28;20449;-76
2021/03/12 06:13:27;;;;;;;1.93;0.90;;;2.90;96.30;;;;;;4957371;29;20769;-76
2021/03/12 06:15:53;;;;;;;1.77;0.90;;;2.90;96.30;;;;;;4957540;28;20183;-76
2021/03/12 06:18:25;;;;;;;2.47;0.70;;;3.00;96.30;;;;;;4959714;28;20492;-76
2021/03/12 06:20:54;;;;;;;2.63;1.00;;;2.90;96.30;;;;;;4955692;28;20202;-75
2021/03/12 06:23:32;;;;;;;1.40;0.73;;;3.00;96.30;;;;;;4960209;28;20784;-76
2021/03/12 06:25:58;;;;;;;1.17;0.70;;;3.00;96.30;;;;;;4970536;28;20934;-75
2021/03/12 06:28:24;;;;;;;3.20;0.90;;;3.10;96.30;;;;;;4961318;28;20420;-75
2021/03/12 06:30:49;;;;;;;3.23;0.70;;;3.10;96.30;;;;;;4962250;28;20202;-76
2021/03/12 06:33:32;;;;;;;2.80;0.70;;;3.20;96.30;;;;;;4964701;28;20565;-75
2021/03/12 06:36:00;;;;;;;1.87;0.90;;;3.30;96.30;;;;;;4956370;29;20196;-74
2021/03/12 06:38:26;;;;;;;1.67;0.60;;;3.30;96.30;;;;;;4956073;28;20454;-75
2021/03/12 06:40:51;;;;;;;2.20;0.80;;;3.30;96.30;;;;;;4956429;29;20434;-75
2021/03/12 06:43:21;;;;;;;2.80;0.80;;;3.30;96.30;;;;;;4955401;29;20419;-75
2021/03/12 06:45:50;;;;;;;2.23;0.90;;;3.40;96.30;;;;;;4952438;28;20619;-75
2021/03/12 06:48:24;;;;;;;3.77;1.00;;;3.40;96.30;;;;;;4965855;28;20782;-75
2021/03/12 06:50:58;;;;;;;1.50;0.83;;;3.40;96.30;;;;;;4968976;28;20500;-74
2021/03/12 06:53:29;;;;;;;7.33;1.37;;;3.50;96.30;;;;;;4967521;28;20414;-74
2021/03/12 06:55:57;;;;;;;2.90;0.80;;;3.50;96.30;;;;;;4962813;28;20421;-75
2021/03/12 06:58:23;;;;;;;3.10;1.10;;;3.50;96.30;;;;;;4965562;28;20943;-77
2021/03/12 07:00:49;;;;;;;2.20;0.80;;;3.50;96.30;;;;;;4951124;28;20463;-75
2021/03/12 07:03:28;;;;;;;1.23;0.60;;;3.40;96.30;;;;;;4956347;29;20419;-76
2021/03/12 07:05:56;;;;;;;3.27;1.30;;;3.50;96.30;;;;;;4964285;28;20269;-75
2021/03/12 07:08:29;;;;;;;1.50;0.63;;;3.50;96.30;;;;;;4958927;28;20421;-75
2021/03/12 07:10:55;;;;;;;1.23;1.00;;;3.60;96.30;;;;;;4955760;28;20554;-76
2021/03/12 07:13:21;;;;;;;2.20;1.00;;;3.70;96.30;;;;;;4958515;28;20497;-75
2021/03/12 07:15:50;;;;;;;1.97;0.70;;;3.70;96.30;;;;;;4954612;29;20733;-75
2021/03/12 07:18:16;;;;;;;1.30;0.80;;;3.70;96.30;;;;;;4954835;29;20510;-75
2021/03/12 07:20:41;;;;;;;2.20;0.83;;;3.70;96.30;;;;;;4955718;28;20517;-75
2021/03/12 07:23:08;;;;;;;3.90;1.50;;;3.80;96.30;;;;;;4956702;28;20190;-74
2021/03/12 07:25:34;;;;;;;2.07;0.70;;;3.80;96.30;;;;;;4970140;28;20210;-74
2021/03/12 07:28:02;;;;;;;2.50;0.80;;;3.70;96.30;;;;;;4957628;28;20418;-74
2021/03/12 07:30:29;;;;;;;2.70;1.10;;;3.70;96.30;;;;;;4959214;28;20460;-73
2021/03/12 07:32:57;;;;;;;2.97;0.77;;;3.70;96.30;;;;;;4959896;28;20424;-73
2021/03/12 07:35:25;;;;;;;2.13;0.90;;;3.60;96.30;;;;;;4959558;28;20429;-74
2021/03/12 07:37:53;;;;;;;3.57;1.10;;;3.70;96.30;;;;;;4958652;28;20767;-73
2021/03/12 07:40:19;;;;;;;3.13;1.07;;;3.70;96.30;;;;;;4963545;28;20440;-74
2021/03/12 07:42:46;;;;;;;1.90;0.80;;;3.70;96.30;;;;;;4965437;28;20414;-73
2021/03/12 07:45:13;;;;;;;1.00;0.80;;;3.80;96.30;;;;;;4954222;28;20966;-74
2021/03/12 07:47:39;;;;;;;5.93;1.10;;;3.80;96.30;;;;;;4954297;29;20433;-73
2021/03/12 07:50:25;;;;;;;4.90;1.13;;;3.90;96.30;;;;;;4954769;29;20509;-74
2021/03/12 07:52:52;;;;;;;1.73;1.00;;;4.00;96.30;;;;;;4954741;29;20221;-74
2021/03/12 07:55:48;;;;;;;1.93;0.93;;;4.10;96.30;;;;;;4954737;28;20457;-73
2021/03/12 07:58:47;;;;;;;3.10;0.80;;;4.10;96.30;;;;;;4962205;28;20437;-73
2021/03/12 08:01:13;;;;;;;2.30;0.80;;;4.00;96.30;;;;;;4956806;28;20466;-74
2021/03/12 08:03:40;;;;;;;1.90;1.00;;;4.10;96.30;;;;;;4954542;29;20417;-74
2021/03/12 08:06:18;;;;;;;5.70;1.30;;;4.10;96.30;;;;;;4954328;29;20174;-73
2021/03/12 08:08:45;;;;;;;4.17;0.93;;;4.10;96.30;;;;;;4954052;29;20418;-73
2021/03/12 08:11:19;;;;;;;2.50;0.70;;;4.10;96.30;;;;;;4954418;28;20489;-73
2021/03/12 08:13:46;;;;;;;2.40;0.80;;;4.20;96.30;;;;;;4952460;28;20426;-73
2021/03/12 08:16:11;;;;;;;1.77;0.90;;;4.30;96.30;;;;;;4954274;29;20407;-74
2021/03/12 08:18:37;;;;;;;1.27;0.70;;;4.20;96.30;;;;;;4952783;29;20934;-73
2021/03/12 08:21:41;;;;;;;2.63;0.80;;;4.20;96.30;;;;;;4954244;28;20812;-73
2021/03/12 08:24:45;;;;;;;6.40;0.97;;;4.20;96.30;;;;;;4953547;29;20270;-73
2021/03/12 08:27:11;;;;;;;4.07;1.00;;;4.30;96.30;;;;;;4953649;29;20418;-73
2021/03/12 08:29:44;;;;;;;1.47;0.70;;;4.30;96.30;;;;;;4954266;29;20406;-73
2021/03/12 08:32:34;;;;;;;3.70;1.10;;;4.40;96.30;;;;;;4953987;28;20438;-74
2021/03/12 08:34:59;;;;;;;2.13;0.90;;;4.50;96.30;;;;;;4954188;29;20410;-73
2021/03/12 08:37:25;;;;;;;1.77;0.83;;;4.60;96.30;;;;;;4953815;29;20554;-73
2021/03/12 08:40:10;;;;;;;2.00;0.80;;;4.70;96.30;;;;;;4954050;29;20644;-73
2021/03/12 08:43:00;;;;;;;2.43;1.00;;;4.60;96.30;;;;;;4953787;29;20179;-75
2021/03/12 08:45:32;;;;;;;1.40;1.00;;;4.60;96.30;;;;;;4953781;28;20461;-73
2021/03/12 08:48:09;;;;;;;3.13;1.20;;;4.60;96.30;;;;;;4953556;29;20407;-74
2021/03/12 08:50:36;;;;;;;4.13;1.90;;;4.50;96.30;;;;;;4951405;29;20449;-74
2021/03/12 08:53:05;;;;;;;3.53;1.00;;;4.50;96.30;;;;;;4954046;28;20441;-74
2021/03/12 08:55:31;;;;;;;4.13;1.20;;;4.60;96.30;;;;;;4953832;28;20425;-74
2021/03/12 08:58:13;;;;;;;3.97;1.03;;;4.50;96.30;;;;;;4953505;28;20937;-75
2021/03/12 09:00:39;;;;;;;3.37;1.17;;;4.50;96.30;;;;;;4952988;28;20458;-73
2021/03/12 09:03:22;;;;;;;2.97;0.90;;;4.40;96.30;;;;;;4951535;29;20437;-77
2021/03/12 09:05:50;;;;;;;3.73;1.10;;;4.40;96.30;;;;;;4953515;28;20828;-74
2021/03/12 09:08:24;;;;;;;1.63;0.70;;;4.40;96.30;;;;;;4952902;29;20771;-74
2021/03/12 09:10:51;;;;;;;2.53;0.87;;;4.40;96.30;;;;;;4951888;28;20461;-74
2021/03/12 09:13:19;;;;;;;1.70;0.97;;;4.50;96.30;;;;;;4953713;29;20449;-74
2021/03/12 09:15:46;;;;;;;4.50;0.70;;;4.50;96.30;;;;;;4953299;29;20421;-74
2021/03/12 09:18:16;;;;;;;1.83;0.80;;;4.60;96.30;;;;;;4953202;29;20826;-74
2021/03/12 09:20:43;;;;;;;2.67;0.87;;;4.70;96.30;;;;;;4953636;28;20434;-74
2021/03/12 09:23:09;;;;;;;1.60;0.67;;;4.80;96.30;;;;;;4952286;29;20430;-74
2021/03/12 09:25:35;;;;;;;1.90;0.90;;;4.90;96.30;;;;;;4953227;29;20533;-74
2021/03/12 09:28:08;;;;;;;2.20;0.90;;;4.90;96.30;;;;;;4952848;29;20756;-74
2021/03/12 09:30:40;;;;;;;4.73;1.43;;;5.10;96.30;;;;;;4953258;28;20195;-74
2021/03/12 09:33:07;;;;;;;4.60;0.90;;;5.00;96.30;;;;;;4951025;29;20470;-74
2021/03/12 09:35:39;;;;;;;0.90;0.70;;;5.00;96.30;;;;;;4945271;28;20415;-74
2021/03/12 09:38:05;;;;;;;2.50;0.80;;;5.10;96.30;;;;;;4933443;29;20423;-74
2021/03/12 09:40:39;;;;;;;3.63;1.13;;;5.10;96.30;;;;;;4934187;29;20446;-74
2021/03/12 09:43:09;;;;;;;2.63;0.90;;;5.00;96.30;;;;;;4934372;29;20159;-74
2021/03/12 09:45:38;;;;;;;3.63;1.47;;;5.00;96.30;;;;;;4933874;29;20473;-75
2021/03/12 09:48:05;;;;;;;6.47;1.07;;;5.10;96.30;;;;;;4933442;29;20424;-74
2021/03/12 09:50:35;;;;;;;4.80;1.00;;;5.20;96.30;;;;;;4934177;29;20951;-74
2021/03/12 09:53:06;;;;;;;4.93;0.93;;;5.40;96.30;;;;;;4933983;29;20896;-75
2021/03/12 09:55:34;;;;;;;2.90;0.93;;;5.60;96.30;;;;;;4934243;29;20410;-74
2021/03/12 09:58:01;;;;;;;3.40;1.20;;;6.00;96.30;;;;;;4964381;28;20923;-74
2021/03/12 10:00:27;;;;;;;3.03;1.33;;;6.00;96.30;;;;;;4934884;29;20890;-74
2021/03/12 10:02:55;;;;;;;3.53;1.20;;;5.80;96.30;;;;;;4952974;29;20478;-74
2021/03/12 10:05:23;;;;;;;1.10;0.80;;;5.80;96.30;;;;;;4953290;29;20206;-74
2021/03/12 10:07:49;;;;;;;3.43;0.87;;;6.00;96.30;;;;;;4952361;29;20779;-74
2021/03/12 10:10:18;;;;;;;2.23;1.03;;;6.30;96.30;;;;;;4953295;28;20414;-73
2021/03/12 10:12:44;;;;;;;3.23;1.00;;;6.20;96.00;;;;;;4952699;29;20497;-74
2021/03/12 10:15:10;;;;;;;4.57;0.90;;;6.30;96.30;;;;;;4953180;28;20431;-74
2021/03/12 10:17:38;;;;;;;7.23;1.30;;;6.40;95.80;;;;;;4952252;28;20415;-76
2021/03/12 10:20:11;;;;;;;4.43;0.97;;;6.40;95.10;;;;;;4952355;28;20597;-75
2021/03/12 10:22:43;;;;;;;3.27;0.80;;;6.20;96.20;;;;;;4952858;29;20850;-74
2021/03/12 10:25:13;;;;;;;3.40;0.70;;;6.30;96.30;;;;;;4950678;29;21001;-74
2021/03/12 10:27:47;;;;;;;2.70;1.10;;;6.40;94.40;;;;;;4952348;28;20419;-76
2021/03/12 10:30:33;;;;;;;3.00;1.17;;;7.00;96.30;;;;;;4953104;28;20915;-74
2021/03/12 10:33:01;;;;;;;7.10;0.90;;;7.30;91.60;;;;;;4952807;28;20792;-74
2021/03/12 10:35:35;;;;;;;1.90;0.80;;;6.80;92.40;;;;;;4953058;28;20450;-74
2021/03/12 10:38:19;;;;;;;2.90;0.93;;;6.30;92.40;;;;;;4954951;29;20444;-73
2021/03/12 10:40:52;;;;;;;9.73;1.33;;;6.20;94.30;;;;;;4956255;28;20448;-74
2021/03/12 10:43:27;;;;;;;16.63;1.50;;;6.10;95.00;;;;;;4956365;29;20481;-74
2021/03/12 10:46:02;;;;;;;5.20;1.73;;;7.10;95.20;;;;;;4956248;29;20468;-75
2021/03/12 10:48:39;;;;;;;5.47;1.33;;;7.70;91.60;;;;;;4955776;28;20394;-74
2021/03/12 10:51:06;;;;;;;4.30;1.00;;;8.50;91.20;;;;;;4954710;28;20505;-74
2021/03/12 10:53:55;;;;;;;4.30;1.00;;;8.00;85.80;;;;;;4955931;29;20417;-74
2021/03/12 10:56:26;;;;;;;4.30;0.90;;;7.20;90.10;;;;;;4953173;29;20950;-74
2021/03/12 10:58:53;;;;;;;5.33;1.20;;;7.40;90.30;;;;;;4954640;29;20498;-74
2021/03/12 11:01:30;;;;;;;6.00;1.00;;;8.10;91.30;;;;;;4955499;28;20481;-74
2021/03/12 11:04:00;;;;;;;2.13;0.70;;;8.40;86.10;;;;;;4955444;29;20411;-74
2021/03/12 11:06:37;;;;;;;2.80;0.80;;;7.70;85.70;;;;;;4956008;29;20419;-74
2021/03/12 11:09:09;;;;;;;1.30;0.70;;;7.50;88.40;;;;;;4954891;29;20473;-74
2021/03/12 11:11:35;;;;;;;2.27;0.90;;;7.20;86.10;;;;;;4955175;28;20438;-74
2021/03/12 11:14:00;;;;;;;2.97;0.80;;;7.50;86.60;;;;;;4955860;29;20977;-74
2021/03/12 11:16:26;;;;;;;2.63;0.90;;;7.70;87.70;;;;;;4955674;29;20411;-74
2021/03/12 11:18:52;;;;;;;1.80;0.67;;;7.80;86.70;;;;;;4955210;29;20179;-74
2021/03/12 11:21:17;;;;;;;3.93;0.90;;;7.70;85.80;;;;;;4955342;28;20198;-74
2021/03/12 11:23:44;;;;;;;2.43;1.07;;;7.30;85.90;;;;;;4955509;29;20187;-74
2021/03/12 11:26:10;;;;;;;2.27;0.63;;;7.20;88.70;;;;;;4955409;29;20167;-74
2021/03/12 11:28:36;;;;;;;4.63;1.30;;;7.30;89.40;;;;;;4954626;29;20411;-74
2021/03/12 11:31:02;;;;;;;1.77;0.70;;;7.90;89.50;;;;;;4955132;28;20446;-74
2021/03/12 11:33:29;;;;;;;4.23;0.93;;;7.90;86.70;;;;;;4955360;29;20929;-74
2021/03/12 11:35:54;;;;;;;3.10;0.97;;;7.60;87.40;;;;;;4955287;29;20426;-74
2021/03/12 11:38:20;;;;;;;1.90;0.80;;;7.40;88.90;;;;;;4954473;29;20903;-74
2021/03/12 11:40:46;;;;;;;2.77;0.90;;;7.20;88.50;;;;;;4954621;28;20674;-73
2021/03/12 11:43:11;;;;;;;2.20;1.40;;;7.20;87.70;;;;;;4955318;29;20655;-74
2021/03/12 11:45:37;;;;;;;2.00;0.77;;;7.30;89.10;;;;;;4955095;29;20243;-74
2021/03/12 11:48:06;;;;;;;2.03;0.83;;;7.10;87.00;;;;;;4963893;28;20556;-74
2021/03/12 11:50:33;;;;;;;2.80;1.10;;;7.10;88.70;;;;;;4973107;28;20572;-74
2021/03/12 11:52:59;;;;;;;5.20;1.30;;;7.70;87.60;;;;;;4954811;28;20418;-74
2021/03/12 11:55:24;;;;;;;3.40;0.97;;;8.40;85.30;;;;;;4955062;29;20427;-73
2021/03/12 11:57:58;;;;;;;3.87;1.10;;;8.80;83.70;;;;;;4954372;29;20210;-74
2021/03/12 12:00:24;;;;;;;4.33;0.90;;;8.80;83.10;;;;;;4953043;28;20552;-73
2021/03/12 12:02:50;;;;;;;3.43;0.90;;;8.60;84.40;;;;;;4953034;28;20493;-73
2021/03/12 12:05:17;;;;;;;5.73;1.20;;;8.40;87.00;;;;;;4945570;29;20202;-74
2021/03/12 12:07:43;;;;;;;5.70;0.90;;;8.20;86.70;;;;;;4952255;29;20845;-73
2021/03/12 12:10:12;;;;;;;2.10;1.00;;;8.00;86.10;;;;;;4954922;29;20407;-74
2021/03/12 12:12:41;;;;;;;4.10;1.10;;;7.80;85.20;;;;;;4954635;29;20722;-73
2021/03/12 12:15:08;;;;;;;5.37;0.97;;;7.50;85.30;;;;;;4954971;29;20914;-73
2021/03/12 12:17:33;;;;;;;3.77;1.00;;;7.40;87.30;;;;;;4954518;29;20509;-73
2021/03/12 12:19:59;;;;;;;3.43;1.20;;;7.30;87.70;;;;;;4954795;29;20418;-74
2021/03/12 12:22:24;;;;;;;5.33;1.40;;;7.50;85.80;;;;;;4954721;29;20281;-74
2021/03/12 12:24:50;;;;;;;3.23;1.00;;;7.40;86.30;;;;;;4954871;29;20211;-73
2021/03/12 12:27:17;;;;;;;2.47;1.00;;;7.70;87.70;;;;;;4954314;29;20175;-73
2021/03/12 12:29:42;;;;;;;4.40;1.50;;;7.80;87.50;;;;;;4954409;29;20418;-73
2021/03/12 12:32:08;;;;;;;1.87;0.70;;;7.80;84.80;;;;;;4954910;28;20434;-73
2021/03/12 12:34:35;;;;;;;3.80;1.00;;;7.60;85.90;;;;;;4954760;28;20185;-73
2021/03/12 12:37:00;;;;;;;2.13;0.90;;;7.60;83.50;;;;;;4952651;29;20786;-73
2021/03/12 12:39:26;;;;;;;4.13;0.90;;;7.50;85.50;;;;;;4954045;29;20426;-74
2021/03/12 12:41:51;;;;;;;2.90;0.90;;;7.30;85.20;;;;;;4952006;29;20215;-73
2021/03/12 12:44:17;;;;;;;2.50;1.17;;;7.70;86.10;;;;;;4954185;29;20207;-73
2021/03/12 12:46:44;;;;;;;2.87;0.90;;;7.70;86.10;;;;;;4954217;29;20179;-74
2021/03/12 12:49:10;;;;;;;3.77;0.97;;;7.70;85.40;;;;;;4953173;29;20530;-74
2021/03/12 12:51:36;;;;;;;3.77;1.83;;;8.00;85.70;;;;;;4953795;28;20815;-74
2021/03/12 12:54:02;;;;;;;3.10;1.00;;;8.00;84.10;;;;;;4953514;29;20438;-71
2021/03/12 12:56:28;;;;;;;3.33;0.93;;;7.70;84.50;;;;;;4953707;29;20481;-71
2021/03/12 12:58:53;;;;;;;1.60;0.80;;;7.40;84.30;;;;;;4952487;28;20426;-72
2021/03/12 13:01:19;;;;;;;2.40;1.20;;;7.40;85.30;;;;;;4953588;29;20249;-71
2021/03/12 13:03:45;;;;;;;3.10;1.17;;;7.70;86.90;;;;;;4953759;29;20186;-71
2021/03/12 13:06:11;;;;;;;2.03;0.90;;;7.70;86.20;;;;;;4953320;29;20415;-71
2021/03/12 13:08:36;;;;;;;2.60;0.77;;;7.80;86.00;;;;;;4953316;29;20175;-72
2021/03/12 13:11:03;;;;;;;1.77;0.90;;;7.70;86.50;;;;;;4952583;29;20198;-71
2021/03/12 13:13:30;;;;;;;3.23;0.97;;;8.20;85.40;;;;;;4953498;28;20233;-71
2021/03/12 13:15:56;;;;;;;2.73;0.90;;;8.40;83.20;;;;;;4952007;28;20430;-71
2021/03/12 13:18:26;;;;;;;2.60;0.90;;;8.40;84.10;;;;;;4953085;28;20419;-71
2021/03/12 13:20:57;;;;;;;6.63;1.77;;;8.20;85.10;;;;;;4953948;28;20442;-71
2021/03/12 13:23:24;;;;;;;4.57;1.03;;;8.00;84.30;;;;;;4967695;28;20414;-72
2021/03/12 13:25:50;;;;;;;3.43;1.10;;;7.90;85.70;;;;;;4953765;29;20472;-71
2021/03/12 13:28:17;;;;;;;3.63;1.30;;;7.90;87.50;;;;;;4950001;29;20434;-71
2021/03/12 13:30:43;;;;;;;3.07;0.80;;;7.80;86.60;;;;;;4934306;29;20431;-71
2021/03/12 13:33:09;;;;;;;2.73;0.90;;;7.80;84.10;;;;;;4938972;29;20422;-72
2021/03/12 13:35:35;;;;;;;5.50;1.17;;;8.00;86.10;;;;;;4941833;29;20458;-71
2021/03/12 13:38:01;;;;;;;2.60;1.00;;;8.10;86.70;;;;;;4948575;29;20185;-71
2021/03/12 13:40:26;;;;;;;4.60;1.10;;;8.00;83.30;;;;;;4953292;28;20222;-71
2021/03/12 13:42:56;;;;;;;7.70;1.27;;;7.70;84.90;;;;;;4951302;29;20587;-71
2021/03/12 13:45:21;;;;;;;4.40;1.40;;;7.50;87.50;;;;;;4952564;29;20199;-71
2021/03/12 13:47:47;;;;;;;2.13;0.80;;;7.40;85.90;;;;;;4953252;29;20418;-71
2021/03/12 13:50:12;;;;;;;2.30;1.03;;;7.10;87.10;;;;;;4953532;28;20171;-71
2021/03/12 13:52:39;;;;;;;2.37;1.10;;;7.50;88.00;;;;;;4953745;29;20250;-71
2021/03/12 13:55:07;;;;;;;3.87;1.33;;;8.10;84.90;;;;;;4951282;29;20193;-71
2021/03/12 13:57:33;;;;;;;2.13;0.90;;;8.50;84.40;;;;;;4953008;29;20518;-71
2021/03/12 13:59:59;;;;;;;4.67;1.13;;;8.00;83.10;;;;;;4953627;29;20490;-71
2021/03/12 14:02:24;;;;;;;4.43;1.07;;;8.10;83.80;;;;;;4953242;28;20249;-72
2021/03/12 14:04:49;;;;;;;3.27;0.93;;;8.20;83.50;;;;;;4953563;29;20214;-71
2021/03/12 14:07:16;;;;;;;1.43;1.20;;;8.30;81.70;;;;;;4951977;29;20194;-71
2021/03/12 14:09:41;;;;;;;2.17;1.00;;;8.30;81.50;;;;;;4952717;28;20222;-72
2021/03/12 14:12:07;;;;;;;4.73;0.73;;;8.40;81.20;;;;;;4956988;28;20438;-72
2021/03/12 14:14:33;;;;;;;2.53;1.13;;;8.10;80.90;;;;;;4957168;29;20193;-71
2021/03/12 14:16:58;;;;;;;13.40;1.93;;;7.90;82.60;;;;;;4956692;29;20411;-71
2021/03/12 14:19:24;;;;;;;3.03;0.90;;;7.60;81.90;;;;;;4957404;29;20182;-71
2021/03/12 14:21:49;;;;;;;2.37;1.03;;;7.30;84.50;;;;;;4957234;28;20627;-71
2021/03/12 14:24:15;;;;;;;3.20;1.27;;;7.40;83.50;;;;;;4956947;29;20210;-71
2021/03/12 14:26:45;;;;;;;1.90;0.93;;;7.60;82.70;;;;;;4957231;28;20647;-71
2021/03/12 14:29:12;;;;;;;2.40;0.83;;;7.70;81.70;;;;;;4956150;29;20178;-71
2021/03/12 14:31:38;;;;;;;1.93;0.83;;;7.60;83.00;;;;;;4955361;28;20493;-71
2021/03/12 14:34:05;;;;;;;2.37;0.80;;;7.70;82.10;;;;;;4956579;29;20417;-71
2021/03/12 14:36:32;;;;;;;1.63;0.80;;;7.70;82.40;;;;;;4956650;28;20406;-70
2021/03/12 14:38:58;;;;;;;4.40;1.50;;;8.10;82.70;;;;;;4956252;29;20911;-72
2021/03/12 14:41:25;;;;;;;5.60;1.17;;;8.50;81.40;;;;;;4954614;28;20992;-70
2021/03/12 14:43:51;;;;;;;2.37;0.90;;;8.10;79.40;;;;;;4956226;28;20426;-70
2021/03/12 14:46:17;;;;;;;2.40;0.80;;;7.70;80.30;;;;;;4956390;29;20418;-70
2021/03/12 14:48:42;;;;;;;3.00;0.90;;;7.60;81.00;;;;;;4960268;28;20806;-73
2021/03/12 14:51:09;;;;;;;2.97;0.90;;;7.60;80.90;;;;;;4975823;28;20190;-74
2021/03/12 14:53:34;;;;;;;5.43;1.23;;;7.60;80.80;;;;;;4975995;28;20171;-73
2021/03/12 14:56:00;;;;;;;1.50;0.70;;;7.50;81.80;;;;;;4951277;28;20435;-74
2021/03/12 14:58:26;;;;;;;4.03;0.80;;;7.40;81.30;;;;;;4954476;29;20237;-73
2021/03/12 15:00:51;;;;;;;4.13;0.80;;;7.60;82.90;;;;;;4952923;29;21135;-73
2021/03/12 15:03:17;;;;;;;3.63;1.20;;;7.60;81.90;;;;;;4955842;29;20250;-73
2021/03/12 15:05:42;;;;;;;2.87;0.97;;;7.50;81.80;;;;;;4956466;28;20246;-74
2021/03/12 15:08:08;;;;;;;2.17;0.90;;;7.60;83.00;;;;;;4955745;29;20214;-73
2021/03/12 15:10:35;;;;;;;6.60;0.97;;;7.70;83.20;;;;;;4955098;28;20194;-73
2021/03/12 15:13:00;;;;;;;2.20;0.73;;;7.60;81.70;;;;;;4956058;29;20255;-74
2021/03/12 15:15:26;;;;;;;2.00;0.87;;;7.50;81.30;;;;;;4955828;29;20505;-73
2021/03/12 15:17:51;;;;;;;3.83;1.30;;;7.50;82.70;;;;;;4955676;29;20647;-73
2021/03/12 15:20:17;;;;;;;2.90;1.17;;;7.50;82.00;;;;;;4956009;29;20209;-73
2021/03/12 15:22:43;;;;;;;5.43;1.23;;;7.60;82.90;;;;;;4955507;28;20548;-74
2021/03/12 15:25:09;;;;;;;1.73;0.80;;;7.30;82.80;;;;;;4955617;29;20886;-73
2021/03/12 15:27:35;;;;;;;2.50;1.10;;;7.30;81.70;;;;;;4955412;29;20690;-70
2021/03/12 15:30:00;;;;;;;8.67;1.63;;;7.50;81.80;;;;;;4961247;28;20485;-73
2021/03/12 15:32:26;;;;;;;1.60;0.70;;;7.50;81.50;;;;;;4955555;29;20954;-73
2021/03/12 15:34:51;;;;;;;4.53;2.13;;;7.40;80.90;;;;;;4956261;29;20179;-73
2021/03/12 15:37:17;;;;;;;3.70;1.03;;;7.40;82.30;;;;;;4954842;29;20250;-72
2021/03/12 15:39:43;;;;;;;3.60;1.60;;;7.30;81.30;;;;;;4955641;29;20254;-73
2021/03/12 15:42:08;;;;;;;2.60;0.90;;;7.20;82.00;;;;;;4955546;29;20203;-73
2021/03/12 15:44:34;;;;;;;2.03;0.80;;;7.00;81.50;;;;;;4954181;29;20206;-73
2021/03/12 15:47:01;;;;;;;2.03;1.13;;;6.90;82.70;;;;;;4946456;29;20191;-73
2021/03/12 15:49:29;;;;;;;2.53;1.10;;;6.90;82.30;;;;;;4955669;28;20167;-74
2021/03/12 15:51:55;;;;;;;3.40;1.50;;;6.90;81.90;;;;;;4955722;29;20430;-73
2021/03/12 15:54:21;;;;;;;5.43;2.70;;;6.90;81.40;;;;;;4955801;28;20418;-73
2021/03/12 15:56:47;;;;;;;2.47;1.50;;;6.80;81.70;;;;;;4956645;29;20258;-74
2021/03/12 15:59:13;;;;;;;4.10;1.43;;;6.80;80.60;;;;;;4955796;28;20179;-73
2021/03/12 16:01:41;;;;;;;3.73;1.37;;;6.60;80.60;;;;;;4956335;28;20457;-74
2021/03/12 16:04:07;;;;;;;5.20;1.30;;;6.60;80.20;;;;;;4956352;28;20267;-75
2021/03/12 16:06:32;;;;;;;3.50;1.33;;;6.50;81.30;;;;;;4956297;28;20490;-75
2021/03/12 16:08:58;;;;;;;4.30;1.73;;;6.60;80.10;;;;;;4958829;28;20861;-74
2021/03/12 16:11:25;;;;;;;5.70;1.10;;;6.50;81.30;;;;;;4966975;28;20201;-74
2021/03/12 16:13:51;;;;;;;1.57;0.80;;;6.50;80.70;;;;;;4964647;28;20426;-74
2021/03/12 16:16:17;;;;;;;3.47;1.20;;;6.50;79.40;;;;;;4961636;28;20450;-73
2021/03/12 16:18:43;;;;;;;2.40;0.87;;;6.50;81.00;;;;;;4955456;28;20229;-75
2021/03/12 16:21:08;;;;;;;3.93;1.10;;;6.20;81.90;;;;;;4955929;28;20442;-73
2021/03/12 16:23:34;;;;;;;3.00;0.97;;;6.20;81.30;;;;;;4955718;29;20198;-73
2021/03/12 16:26:01;;;;;;;11.87;4.30;;;6.10;81.80;;;;;;4954131;29;20278;-74
2021/03/12 16:28:27;;;;;;;3.73;2.03;;;6.10;80.80;;;;;;4955460;28;20171;-76
2021/03/12 16:30:53;;;;;;;3.70;1.60;;;6.10;81.30;;;;;;4955306;28;20815;-77
2021/03/12 16:33:18;;;;;;;3.70;1.03;;;6.00;80.40;;;;;;4956424;28;20306;-76
2021/03/12 16:35:44;;;;;;;2.40;1.10;;;5.90;81.20;;;;;;4967790;28;20450;-76
2021/03/12 16:38:10;;;;;;;1.30;0.83;;;5.80;82.50;;;;;;4955788;29;20178;-76
2021/03/12 16:40:35;;;;;;;3.00;0.80;;;5.70;82.50;;;;;;4955634;28;20230;-76
2021/03/12 16:43:01;;;;;;;2.60;0.70;;;5.60;82.20;;;;;;4955820;28;20437;-76
2021/03/12 16:45:27;;;;;;;4.97;1.87;;;5.70;81.10;;;;;;4954374;29;20229;-76
2021/03/12 16:47:53;;;;;;;2.77;1.10;;;5.80;81.20;;;;;;4955789;29;20199;-76
2021/03/12 16:50:18;;;;;;;3.53;2.30;;;5.60;81.90;;;;;;4956100;28;20174;-78
2021/03/12 16:52:45;;;;;;;7.07;2.20;;;5.60;82.30;;;;;;4956331;29;20246;-77
2021/03/12 16:55:11;;;;;;;5.17;1.00;;;5.60;81.90;;;;;;4965303;28;20170;-78
2021/03/12 16:57:37;;;;;;;11.30;4.43;;;5.60;82.70;;;;;;4974732;28;20460;-79
2021/03/12 17:00:08;;;;;;;4.07;1.93;;;5.60;82.30;;;;;;4975491;28;20425;-78
2021/03/12 17:02:34;;;;;;;12.10;4.43;;;5.60;82.00;;;;;;4975204;28;20588;-78